Terminal Aerodrome Forecast
Issued by NWS

Home | Current Version | Previous Version | Text Only | Print | Product List | Glossary On
Versions: 1 2 3 4 5 6 7 8 9 10 11 12 13 14 15 16 17 18 19 20 21 22 23
000
FTUS45 KFGZ 022200 AAA
TAFPRC
TAF AMD
KPRC 022237Z 0223/0318 24011KT P6SM VCSH FEW015 SCT025 BKN045
      TEMPO 0223/0301 5SM -RASN BR SCT013 BKN019
     FM030100 21007KT P6SM BKN020
      TEMPO 0301/0305 6SM -SHRASN BKN015=

USA.gov is the U.S. government's official web portal to all federal, state and local government web resources and services.